sensor_id;sensor_type;location;lat;lon;timestamp;temperature;humidity
24103;DHT22;12278;53.058;9.028;2023-06-24T00:02:07;16.60;99.90
24103;DHT22;12278;53.058;9.028;2023-06-24T00:06:07;16.50;99.90
24103;DHT22;12278;53.058;9.028;2023-06-24T00:10:13;16.40;99.90
24103;DHT22;12278;53.058;9.028;2023-06-24T00:14:14;16.50;99.90
24103;DHT22;12278;53.058;9.028;2023-06-24T00:18:15;16.40;99.90
24103;DHT22;12278;53.058;9.028;2023-06-24T00:22:18;16.40;99.90
24103;DHT22;12278;53.058;9.028;2023-06-24T00:26:19;16.40;99.90
24103;DHT22;12278;53.058;9.028;2023-06-24T00:30:19;16.40;99.90
24103;DHT22;12278;53.058;9.028;2023-06-24T00:34:20;16.30;99.90
24103;DHT22;12278;53.058;9.028;2023-06-24T00:38:20;16.30;99.90
24103;DHT22;12278;53.058;9.028;2023-06-24T00:42:21;16.30;99.90
24103;DHT22;12278;53.058;9.028;2023-06-24T00:46:26;16.10;99.90
24103;DHT22;12278;53.058;9.028;2023-06-24T00:50:27;16.10;99.90
24103;DHT22;12278;53.058;9.028;2023-06-24T00:54:28;16.20;99.90
24103;DHT22;12278;53.058;9.028;2023-06-24T00:58:32;16.10;99.90
24103;DHT22;12278;53.058;9.028;2023-06-24T01:02:35;16.00;99.90
24103;DHT22;12278;53.058;9.028;2023-06-24T01:06:39;15.90;99.90
24103;DHT22;12278;53.058;9.028;2023-06-24T01:10:44;15.90;99.90
24103;DHT22;12278;53.058;9.028;2023-06-24T01:14:44;15.80;99.90
24103;DHT22;12278;53.058;9.028;2023-06-24T01:18:49;15.80;99.90
24103;DHT22;12278;53.058;9.028;2023-06-24T01:31:39;15.50;99.90
24103;DHT22;12278;53.058;9.028;2023-06-24T01:35:43;15.50;99.90
24103;DHT22;12278;53.058;9.028;2023-06-24T01:39:55;15.50;99.90
24103;DHT22;12278;53.058;9.028;2023-06-24T01:43:56;15.40;99.90
24103;DHT22;12278;53.058;9.028;2023-06-24T01:48:09;15.40;99.90
24103;DHT22;12278;53.058;9.028;2023-06-24T01:52:13;15.30;99.90
24103;DHT22;12278;53.058;9.028;2023-06-24T01:56:15;15.20;99.90
24103;DHT22;12278;53.058;9.028;2023-06-24T02:00:17;15.20;99.90
24103;DHT22;12278;53.058;9.028;2023-06-24T02:04:19;15.20;99.90
24103;DHT22;12278;53.058;9.028;2023-06-24T02:08:21;15.20;99.90
24103;DHT22;12278;53.058;9.028;2023-06-24T02:12:24;15.20;99.90
24103;DHT22;12278;53.058;9.028;2023-06-24T02:16:27;15.20;99.90
24103;DHT22;12278;53.058;9.028;2023-06-24T02:20:31;15.20;99.90
24103;DHT22;12278;53.058;9.028;2023-06-24T02:24:32;15.20;99.90
24103;DHT22;12278;53.058;9.028;2023-06-24T02:28:33;15.20;99.90
24103;DHT22;12278;53.058;9.028;2023-06-24T02:32:34;15.10;99.90
24103;DHT22;12278;53.058;9.028;2023-06-24T02:36:39;15.00;99.90
24103;DHT22;12278;53.058;9.028;2023-06-24T02:40:40;15.00;99.90
24103;DHT22;12278;53.058;9.028;2023-06-24T02:44:42;14.90;99.90
24103;DHT22;12278;53.058;9.028;2023-06-24T02:48:45;14.90;99.90
24103;DHT22;12278;53.058;9.028;2023-06-24T02:52:46;15.00;99.90
24103;DHT22;12278;53.058;9.028;2023-06-24T02:56:48;14.90;99.90
24103;DHT22;12278;53.058;9.028;2023-06-24T03:00:49;14.90;99.90
24103;DHT22;12278;53.058;9.028;2023-06-24T03:04:51;15.00;99.90
24103;DHT22;12278;53.058;9.028;2023-06-24T03:08:52;15.10;99.90
24103;DHT22;12278;53.058;9.028;2023-06-24T03:12:53;15.00;99.90
24103;DHT22;12278;53.058;9.028;2023-06-24T03:16:54;15.00;99.90
24103;DHT22;12278;53.058;9.028;2023-06-24T03:20:55;15.00;99.90
24103;DHT22;12278;53.058;9.028;2023-06-24T03:24:55;15.00;99.90
24103;DHT22;12278;53.058;9.028;2023-06-24T03:28:56;14.80;99.90
24103;DHT22;12278;53.058;9.028;2023-06-24T03:32:57;14.90;99.90
24103;DHT22;12278;53.058;9.028;2023-06-24T03:36:57;15.00;99.90
24103;DHT22;12278;53.058;9.028;2023-06-24T03:40:58;15.00;99.90
24103;DHT22;12278;53.058;9.028;2023-06-24T03:44:59;15.10;99.90
24103;DHT22;12278;53.058;9.028;2023-06-24T03:48:59;15.10;99.90
24103;DHT22;12278;53.058;9.028;2023-06-24T03:53:02;15.10;99.90
24103;DHT22;12278;53.058;9.028;2023-06-24T03:57:03;15.20;99.90
24103;DHT22;12278;53.058;9.028;2023-06-24T04:01:04;15.00;99.90
24103;DHT22;12278;53.058;9.028;2023-06-24T04:05:05;14.90;99.90
24103;DHT22;12278;53.058;9.028;2023-06-24T04:09:06;14.90;99.90
24103;DHT22;12278;53.058;9.028;2023-06-24T04:13:09;15.20;99.90
24103;DHT22;12278;53.058;9.028;2023-06-24T04:17:09;15.20;99.90
24103;DHT22;12278;53.058;9.028;2023-06-24T04:21:10;15.20;99.90
24103;DHT22;12278;53.058;9.028;2023-06-24T04:25:11;15.20;99.90
24103;DHT22;12278;53.058;9.028;2023-06-24T04:29:12;15.30;99.90
24103;DHT22;12278;53.058;9.028;2023-06-24T04:33:18;15.30;99.90
24103;DHT22;12278;53.058;9.028;2023-06-24T04:37:18;15.40;99.90
24103;DHT22;12278;53.058;9.028;2023-06-24T04:41:19;15.40;99.90
24103;DHT22;12278;53.058;9.028;2023-06-24T04:45:20;15.40;99.90
24103;DHT22;12278;53.058;9.028;2023-06-24T04:49:21;15.40;99.90
24103;DHT22;12278;53.058;9.028;2023-06-24T04:53:22;15.40;99.90
24103;DHT22;12278;53.058;9.028;2023-06-24T04:57:33;15.60;99.90
24103;DHT22;12278;53.058;9.028;2023-06-24T05:01:34;15.60;99.90
24103;DHT22;12278;53.058;9.028;2023-06-24T05:05:39;15.60;99.90
24103;DHT22;12278;53.058;9.028;2023-06-24T05:09:39;15.70;99.90
24103;DHT22;12278;53.058;9.028;2023-06-24T05:13:41;15.80;99.90
24103;DHT22;12278;53.058;9.028;2023-06-24T05:17:42;15.90;99.90
24103;DHT22;12278;53.058;9.028;2023-06-24T05:21:43;16.20;99.90
24103;DHT22;12278;53.058;9.028;2023-06-24T05:25:45;16.30;99.90
24103;DHT22;12278;53.058;9.028;2023-06-24T05:29:45;16.50;99.90
24103;DHT22;12278;53.058;9.028;2023-06-24T05:33:46;16.20;99.90
24103;DHT22;12278;53.058;9.028;2023-06-24T05:37:47;16.30;99.90
24103;DHT22;12278;53.058;9.028;2023-06-24T05:41:47;16.50;99.90
24103;DHT22;12278;53.058;9.028;2023-06-24T05:45:51;16.50;99.90
24103;DHT22;12278;53.058;9.028;2023-06-24T05:49:51;16.60;99.90
24103;DHT22;12278;53.058;9.028;2023-06-24T05:53:52;16.60;99.90
24103;DHT22;12278;53.058;9.028;2023-06-24T05:57:53;16.80;99.90
24103;DHT22;12278;53.058;9.028;2023-06-24T06:01:54;17.10;99.90
24103;DHT22;12278;53.058;9.028;2023-06-24T06:05:57;17.20;99.90
24103;DHT22;12278;53.058;9.028;2023-06-24T06:09:58;17.30;99.90
24103;DHT22;12278;53.058;9.028;2023-06-24T06:13:59;17.40;99.90
24103;DHT22;12278;53.058;9.028;2023-06-24T06:17:59;17.60;99.90
24103;DHT22;12278;53.058;9.028;2023-06-24T06:22:00;17.60;99.90
24103;DHT22;12278;53.058;9.028;2023-06-24T06:26:03;17.50;99.90
24103;DHT22;12278;53.058;9.028;2023-06-24T06:30:04;17.70;99.90
24103;DHT22;12278;53.058;9.028;2023-06-24T06:34:05;17.80;99.90
24103;DHT22;12278;53.058;9.028;2023-06-24T06:38:06;18.10;99.90
24103;DHT22;12278;53.058;9.028;2023-06-24T06:42:07;18.20;99.90
24103;DHT22;12278;53.058;9.028;2023-06-24T06:46:07;18.50;99.90
24103;DHT22;12278;53.058;9.028;2023-06-24T06:50:10;18.80;99.90
24103;DHT22;12278;53.058;9.028;2023-06-24T06:54:12;19.00;99.90
24103;DHT22;12278;53.058;9.028;2023-06-24T06:58:13;19.20;99.90
24103;DHT22;12278;53.058;9.028;2023-06-24T07:02:13;19.20;99.90
24103;DHT22;12278;53.058;9.028;2023-06-24T07:06:14;19.60;99.90
24103;DHT22;12278;53.058;9.028;2023-06-24T07:10:15;19.70;99.90
24103;DHT22;12278;53.058;9.028;2023-06-24T07:14:16;19.70;99.90
24103;DHT22;12278;53.058;9.028;2023-06-24T07:18:17;20.10;99.90
24103;DHT22;12278;53.058;9.028;2023-06-24T07:22:18;20.10;99.90
24103;DHT22;12278;53.058;9.028;2023-06-24T07:26:18;20.30;99.90
24103;DHT22;12278;53.058;9.028;2023-06-24T07:30:19;20.50;99.90
24103;DHT22;12278;53.058;9.028;2023-06-24T07:34:19;20.70;99.90
24103;DHT22;12278;53.058;9.028;2023-06-24T07:38:21;20.90;99.90
24103;DHT22;12278;53.058;9.028;2023-06-24T07:42:22;21.20;99.90
24103;DHT22;12278;53.058;9.028;2023-06-24T07:46:24;21.10;99.90
24103;DHT22;12278;53.058;9.028;2023-06-24T07:50:27;21.10;99.90
24103;DHT22;12278;53.058;9.028;2023-06-24T07:54:29;21.20;99.90
24103;DHT22;12278;53.058;9.028;2023-06-24T07:58:30;21.70;99.90
24103;DHT22;12278;53.058;9.028;2023-06-24T08:02:30;22.30;99.90
24103;DHT22;12278;53.058;9.028;2023-06-24T08:06:31;22.90;99.90
24103;DHT22;12278;53.058;9.028;2023-06-24T08:10:32;23.20;99.90
24103;DHT22;12278;53.058;9.028;2023-06-24T08:14:33;23.00;99.90
24103;DHT22;12278;53.058;9.028;2023-06-24T08:18:33;23.40;99.90
24103;DHT22;12278;53.058;9.028;2023-06-24T08:22:35;23.00;99.90
24103;DHT22;12278;53.058;9.028;2023-06-24T08:26:36;23.10;99.90
24103;DHT22;12278;53.058;9.028;2023-06-24T08:30:36;23.50;99.90
24103;DHT22;12278;53.058;9.028;2023-06-24T08:34:38;23.90;99.90
24103;DHT22;12278;53.058;9.028;2023-06-24T08:38:39;22.90;99.90
24103;DHT22;12278;53.058;9.028;2023-06-24T08:42:40;22.80;99.90
24103;DHT22;12278;53.058;9.028;2023-06-24T08:46:40;22.90;99.90
24103;DHT22;12278;53.058;9.028;2023-06-24T08:50:44;23.50;99.90
24103;DHT22;12278;53.058;9.028;2023-06-24T08:54:51;23.40;99.90
24103;DHT22;12278;53.058;9.028;2023-06-24T08:58:51;23.90;99.90
24103;DHT22;12278;53.058;9.028;2023-06-24T09:02:52;23.60;99.90
24103;DHT22;12278;53.058;9.028;2023-06-24T09:06:53;23.60;99.90
24103;DHT22;12278;53.058;9.028;2023-06-24T09:10:57;23.70;99.90
24103;DHT22;12278;53.058;9.028;2023-06-24T09:14:57;23.50;99.90
24103;DHT22;12278;53.058;9.028;2023-06-24T09:18:58;23.90;99.90
24103;DHT22;12278;53.058;9.028;2023-06-24T09:23:00;23.80;99.90
24103;DHT22;12278;53.058;9.028;2023-06-24T09:27:05;24.30;99.90
24103;DHT22;12278;53.058;9.028;2023-06-24T09:31:09;24.10;99.90
24103;DHT22;12278;53.058;9.028;2023-06-24T09:35:10;24.30;99.90
24103;DHT22;12278;53.058;9.028;2023-06-24T09:39:11;24.20;99.90
24103;DHT22;12278;53.058;9.028;2023-06-24T09:43:20;24.30;99.90
24103;DHT22;12278;53.058;9.028;2023-06-24T09:47:21;24.80;99.90
24103;DHT22;12278;53.058;9.028;2023-06-24T09:51:26;25.00;99.90
24103;DHT22;12278;53.058;9.028;2023-06-24T09:55:27;25.10;99.90
24103;DHT22;12278;53.058;9.028;2023-06-24T09:59:30;25.10;99.90
24103;DHT22;12278;53.058;9.028;2023-06-24T10:03:35;25.50;99.90
24103;DHT22;12278;53.058;9.028;2023-06-24T10:07:36;25.40;99.90
24103;DHT22;12278;53.058;9.028;2023-06-24T10:11:39;25.30;99.90
24103;DHT22;12278;53.058;9.028;2023-06-24T10:15:40;25.20;99.90
24103;DHT22;12278;53.058;9.028;2023-06-24T10:19:41;25.40;99.90
24103;DHT22;12278;53.058;9.028;2023-06-24T10:23:52;25.60;99.90
24103;DHT22;12278;53.058;9.028;2023-06-24T10:27:56;26.10;99.90
24103;DHT22;12278;53.058;9.028;2023-06-24T10:32:02;26.80;99.90
24103;DHT22;12278;53.058;9.028;2023-06-24T10:36:03;26.50;99.90
24103;DHT22;12278;53.058;9.028;2023-06-24T10:40:04;26.10;99.90
24103;DHT22;12278;53.058;9.028;2023-06-24T10:44:14;25.90;99.90
24103;DHT22;12278;53.058;9.028;2023-06-24T10:48:16;26.00;99.90
24103;DHT22;12278;53.058;9.028;2023-06-24T10:52:27;25.90;99.90
24103;DHT22;12278;53.058;9.028;2023-06-24T10:56:30;26.60;99.90
24103;DHT22;12278;53.058;9.028;2023-06-24T11:00:31;26.60;99.90
24103;DHT22;12278;53.058;9.028;2023-06-24T11:05:01;26.90;99.90
24103;DHT22;12278;53.058;9.028;2023-06-24T11:09:02;26.90;98.90
24103;DHT22;12278;53.058;9.028;2023-06-24T11:13:06;26.90;99.90
24103;DHT22;12278;53.058;9.028;2023-06-24T11:17:07;27.00;97.50
24103;DHT22;12278;53.058;9.028;2023-06-24T11:21:09;27.10;98.00
24103;DHT22;12278;53.058;9.028;2023-06-24T11:25:22;27.20;99.90
24103;DHT22;12278;53.058;9.028;2023-06-24T11:29:23;27.60;98.20
24103;DHT22;12278;53.058;9.028;2023-06-24T11:33:27;27.50;99.40
24103;DHT22;12278;53.058;9.028;2023-06-24T11:37:31;26.80;99.90
24103;DHT22;12278;53.058;9.028;2023-06-24T11:41:37;26.80;99.90
24103;DHT22;12278;53.058;9.028;2023-06-24T11:45:39;27.70;98.70
24103;DHT22;12278;53.058;9.028;2023-06-24T11:53:50;27.70;98.30
24103;DHT22;12278;53.058;9.028;2023-06-24T11:58:02;27.30;98.60
24103;DHT22;12278;53.058;9.028;2023-06-24T12:02:05;26.80;97.90
24103;DHT22;12278;53.058;9.028;2023-06-24T12:06:07;27.60;98.30
24103;DHT22;12278;53.058;9.028;2023-06-24T12:10:08;28.00;99.90
24103;DHT22;12278;53.058;9.028;2023-06-24T12:14:08;27.40;97.20
24103;DHT22;12278;53.058;9.028;2023-06-24T12:18:09;27.80;96.40
24103;DHT22;12278;53.058;9.028;2023-06-24T12:22:10;27.70;98.00
24103;DHT22;12278;53.058;9.028;2023-06-24T12:26:14;28.50;97.10
24103;DHT22;12278;53.058;9.028;2023-06-24T12:30:16;27.80;97.30
24103;DHT22;12278;53.058;9.028;2023-06-24T12:34:17;28.30;96.90
24103;DHT22;12278;53.058;9.028;2023-06-24T12:38:18;28.10;96.00
24103;DHT22;12278;53.058;9.028;2023-06-24T12:42:18;27.50;96.20
24103;DHT22;12278;53.058;9.028;2023-06-24T12:46:19;27.80;96.20
24103;DHT22;12278;53.058;9.028;2023-06-24T12:50:23;28.60;95.70
24103;DHT22;12278;53.058;9.028;2023-06-24T12:54:23;28.60;95.60
24103;DHT22;12278;53.058;9.028;2023-06-24T12:58:24;28.20;96.40
24103;DHT22;12278;53.058;9.028;2023-06-24T13:02:26;27.70;94.40
24103;DHT22;12278;53.058;9.028;2023-06-24T13:06:27;27.80;96.00
24103;DHT22;12278;53.058;9.028;2023-06-24T13:10:27;28.50;96.00
24103;DHT22;12278;53.058;9.028;2023-06-24T13:14:28;29.60;94.80
24103;DHT22;12278;53.058;9.028;2023-06-24T13:18:31;28.50;95.50
24103;DHT22;12278;53.058;9.028;2023-06-24T13:22:31;27.70;96.90
24103;DHT22;12278;53.058;9.028;2023-06-24T13:26:32;26.90;96.00
24103;DHT22;12278;53.058;9.028;2023-06-24T13:30:35;26.60;98.80
24103;DHT22;12278;53.058;9.028;2023-06-24T13:34:35;27.20;96.40
24103;DHT22;12278;53.058;9.028;2023-06-24T13:38:36;27.20;95.50
24103;DHT22;12278;53.058;9.028;2023-06-24T13:42:37;28.00;97.00
24103;DHT22;12278;53.058;9.028;2023-06-24T13:46:38;30.20;95.30
24103;DHT22;12278;53.058;9.028;2023-06-24T13:50:38;30.60;92.60
24103;DHT22;12278;53.058;9.028;2023-06-24T13:54:39;28.80;93.10
24103;DHT22;12278;53.058;9.028;2023-06-24T13:58:40;28.30;94.80
24103;DHT22;12278;53.058;9.028;2023-06-24T14:02:40;27.90;94.00
24103;DHT22;12278;53.058;9.028;2023-06-24T14:06:41;27.90;96.10
24103;DHT22;12278;53.058;9.028;2023-06-24T14:10:43;29.70;94.20
24103;DHT22;12278;53.058;9.028;2023-06-24T14:14:44;29.70;93.10
24103;DHT22;12278;53.058;9.028;2023-06-24T14:18:45;28.90;93.90
24103;DHT22;12278;53.058;9.028;2023-06-24T14:22:46;30.60;93.50
24103;DHT22;12278;53.058;9.028;2023-06-24T14:26:47;31.30;91.40
24103;DHT22;12278;53.058;9.028;2023-06-24T14:30:49;30.80;92.20
24103;DHT22;12278;53.058;9.028;2023-06-24T14:34:50;32.40;89.40
24103;DHT22;12278;53.058;9.028;2023-06-24T14:38:51;33.90;88.80
24103;DHT22;12278;53.058;9.028;2023-06-24T14:42:51;33.10;82.30
24103;DHT22;12278;53.058;9.028;2023-06-24T14:46:52;32.40;88.30
24103;DHT22;12278;53.058;9.028;2023-06-24T14:50:52;30.20;90.60
24103;DHT22;12278;53.058;9.028;2023-06-24T14:54:53;29.10;92.00
24103;DHT22;12278;53.058;9.028;2023-06-24T14:58:54;28.00;92.20
24103;DHT22;12278;53.058;9.028;2023-06-24T15:02:54;27.60;96.20
24103;DHT22;12278;53.058;9.028;2023-06-24T15:06:55;27.30;98.40
24103;DHT22;12278;53.058;9.028;2023-06-24T15:10:56;27.10;98.70
24103;DHT22;12278;53.058;9.028;2023-06-24T15:14:56;27.20;98.30
24103;DHT22;12278;53.058;9.028;2023-06-24T15:18:59;27.50;98.00
24103;DHT22;12278;53.058;9.028;2023-06-24T15:23:00;29.00;96.50
24103;DHT22;12278;53.058;9.028;2023-06-24T15:27:01;29.20;96.40
24103;DHT22;12278;53.058;9.028;2023-06-24T15:31:02;29.80;94.30
24103;DHT22;12278;53.058;9.028;2023-06-24T15:35:03;30.80;93.20
24103;DHT22;12278;53.058;9.028;2023-06-24T15:39:04;33.10;91.20
24103;DHT22;12278;53.058;9.028;2023-06-24T15:43:04;32.20;89.50
24103;DHT22;12278;53.058;9.028;2023-06-24T15:47:05;30.10;92.40
24103;DHT22;12278;53.058;9.028;2023-06-24T15:51:06;28.30;94.20
24103;DHT22;12278;53.058;9.028;2023-06-24T15:55:07;27.70;94.60
24103;DHT22;12278;53.058;9.028;2023-06-24T15:59:08;27.10;97.60
24103;DHT22;12278;53.058;9.028;2023-06-24T16:03:09;26.90;96.60
24103;DHT22;12278;53.058;9.028;2023-06-24T16:07:10;27.30;98.40
24103;DHT22;12278;53.058;9.028;2023-06-24T16:11:11;27.80;98.60
24103;DHT22;12278;53.058;9.028;2023-06-24T16:15:11;27.90;97.40
24103;DHT22;12278;53.058;9.028;2023-06-24T16:19:12;27.70;97.80
24103;DHT22;12278;53.058;9.028;2023-06-24T16:23:13;27.10;99.80
24103;DHT22;12278;53.058;9.028;2023-06-24T16:27:13;26.60;99.80
24103;DHT22;12278;53.058;9.028;2023-06-24T16:31:14;26.10;99.90
24103;DHT22;12278;53.058;9.028;2023-06-24T16:35:14;25.80;99.90
24103;DHT22;12278;53.058;9.028;2023-06-24T16:39:15;25.60;99.90
24103;DHT22;12278;53.058;9.028;2023-06-24T16:43:16;25.50;99.90
24103;DHT22;12278;53.058;9.028;2023-06-24T16:47:16;25.40;99.90
24103;DHT22;12278;53.058;9.028;2023-06-24T16:51:17;25.20;99.90
24103;DHT22;12278;53.058;9.028;2023-06-24T16:55:17;25.10;99.90
24103;DHT22;12278;53.058;9.028;2023-06-24T16:59:18;25.00;99.90
24103;DHT22;12278;53.058;9.028;2023-06-24T17:03:19;25.00;99.90
24103;DHT22;12278;53.058;9.028;2023-06-24T17:07:19;25.00;99.90
24103;DHT22;12278;53.058;9.028;2023-06-24T17:11:20;25.00;99.90
24103;DHT22;12278;53.058;9.028;2023-06-24T17:15:21;25.00;99.90
24103;DHT22;12278;53.058;9.028;2023-06-24T17:19:23;25.00;99.90
24103;DHT22;12278;53.058;9.028;2023-06-24T17:23:24;25.00;99.90
24103;DHT22;12278;53.058;9.028;2023-06-24T17:27:25;25.10;99.90
24103;DHT22;12278;53.058;9.028;2023-06-24T17:31:26;25.00;99.90
24103;DHT22;12278;53.058;9.028;2023-06-24T17:35:26;25.00;99.90
24103;DHT22;12278;53.058;9.028;2023-06-24T17:39:27;24.90;99.90
24103;DHT22;12278;53.058;9.028;2023-06-24T17:43:27;24.90;99.90
24103;DHT22;12278;53.058;9.028;2023-06-24T17:47:28;24.90;99.90
24103;DHT22;12278;53.058;9.028;2023-06-24T17:51:29;24.90;99.90
24103;DHT22;12278;53.058;9.028;2023-06-24T17:55:30;24.90;99.90
24103;DHT22;12278;53.058;9.028;2023-06-24T17:59:34;25.00;99.90
24103;DHT22;12278;53.058;9.028;2023-06-24T18:03:34;25.10;99.90
24103;DHT22;12278;53.058;9.028;2023-06-24T18:07:36;25.30;99.90
24103;DHT22;12278;53.058;9.028;2023-06-24T18:11:37;25.40;99.90
24103;DHT22;12278;53.058;9.028;2023-06-24T18:15:38;25.40;99.90
24103;DHT22;12278;53.058;9.028;2023-06-24T18:19:38;25.50;99.90
24103;DHT22;12278;53.058;9.028;2023-06-24T18:23:43;25.30;99.90
24103;DHT22;12278;53.058;9.028;2023-06-24T18:27:45;25.10;99.90
24103;DHT22;12278;53.058;9.028;2023-06-24T18:31:57;24.90;99.90
24103;DHT22;12278;53.058;9.028;2023-06-24T18:35:57;24.70;99.90
24103;DHT22;12278;53.058;9.028;2023-06-24T18:40:03;24.50;99.90
24103;DHT22;12278;53.058;9.028;2023-06-24T18:44:04;24.30;99.90
24103;DHT22;12278;53.058;9.028;2023-06-24T18:48:05;24.10;99.90
24103;DHT22;12278;53.058;9.028;2023-06-24T18:52:08;23.90;99.90
24103;DHT22;12278;53.058;9.028;2023-06-24T18:56:12;23.70;99.90
24103;DHT22;12278;53.058;9.028;2023-06-24T19:00:13;23.70;99.90
24103;DHT22;12278;53.058;9.028;2023-06-24T19:04:14;23.60;99.90
24103;DHT22;12278;53.058;9.028;2023-06-24T19:08:16;23.50;99.90
24103;DHT22;12278;53.058;9.028;2023-06-24T19:12:16;23.40;99.90
24103;DHT22;12278;53.058;9.028;2023-06-24T19:16:18;23.30;99.90
24103;DHT22;12278;53.058;9.028;2023-06-24T19:20:18;23.20;99.90
24103;DHT22;12278;53.058;9.028;2023-06-24T19:24:19;23.10;99.90
24103;DHT22;12278;53.058;9.028;2023-06-24T19:28:20;23.00;99.90
24103;DHT22;12278;53.058;9.028;2023-06-24T19:32:20;22.90;99.90
24103;DHT22;12278;53.058;9.028;2023-06-24T19:36:22;22.80;99.90
24103;DHT22;12278;53.058;9.028;2023-06-24T19:40:23;22.80;99.90
24103;DHT22;12278;53.058;9.028;2023-06-24T19:44:23;22.60;99.90
24103;DHT22;12278;53.058;9.028;2023-06-24T19:48:24;22.60;99.90
24103;DHT22;12278;53.058;9.028;2023-06-24T19:52:25;22.40;99.90
24103;DHT22;12278;53.058;9.028;2023-06-24T19:56:25;22.30;99.90
24103;DHT22;12278;53.058;9.028;2023-06-24T20:00:26;22.10;99.90
24103;DHT22;12278;53.058;9.028;2023-06-24T20:04:27;22.00;99.90
24103;DHT22;12278;53.058;9.028;2023-06-24T20:08:27;22.00;99.90
24103;DHT22;12278;53.058;9.028;2023-06-24T20:12:28;21.90;99.90
24103;DHT22;12278;53.058;9.028;2023-06-24T20:16:34;21.80;99.90
24103;DHT22;12278;53.058;9.028;2023-06-24T20:20:34;21.60;99.90
24103;DHT22;12278;53.058;9.028;2023-06-24T20:24:35;21.60;99.90
24103;DHT22;12278;53.058;9.028;2023-06-24T20:28:35;21.50;99.90
24103;DHT22;12278;53.058;9.028;2023-06-24T20:32:37;21.40;99.90
24103;DHT22;12278;53.058;9.028;2023-06-24T20:36:38;21.40;99.90
24103;DHT22;12278;53.058;9.028;2023-06-24T20:40:39;21.20;99.90
24103;DHT22;12278;53.058;9.028;2023-06-24T20:44:40;21.10;99.90
24103;DHT22;12278;53.058;9.028;2023-06-24T20:48:41;21.10;99.90
24103;DHT22;12278;53.058;9.028;2023-06-24T20:52:41;21.10;99.90
24103;DHT22;12278;53.058;9.028;2023-06-24T20:56:42;21.00;99.90
24103;DHT22;12278;53.058;9.028;2023-06-24T21:00:43;21.00;99.90
24103;DHT22;12278;53.058;9.028;2023-06-24T21:04:43;21.00;99.90
24103;DHT22;12278;53.058;9.028;2023-06-24T21:08:44;21.00;99.90
24103;DHT22;12278;53.058;9.028;2023-06-24T21:12:45;20.90;99.90
24103;DHT22;12278;53.058;9.028;2023-06-24T21:16:48;20.90;99.90
24103;DHT22;12278;53.058;9.028;2023-06-24T21:20:49;20.80;99.90
24103;DHT22;12278;53.058;9.028;2023-06-24T21:24:50;20.70;99.90
24103;DHT22;12278;53.058;9.028;2023-06-24T21:28:50;20.70;99.90
24103;DHT22;12278;53.058;9.028;2023-06-24T21:32:51;20.60;99.90
24103;DHT22;12278;53.058;9.028;2023-06-24T21:36:52;20.70;99.90
24103;DHT22;12278;53.058;9.028;2023-06-24T21:40:53;20.60;99.90
24103;DHT22;12278;53.058;9.028;2023-06-24T21:44:53;20.50;99.90
24103;DHT22;12278;53.058;9.028;2023-06-24T21:48:54;20.50;99.90
24103;DHT22;12278;53.058;9.028;2023-06-24T21:52:55;20.50;99.90
24103;DHT22;12278;53.058;9.028;2023-06-24T21:56:55;20.40;99.90
24103;DHT22;12278;53.058;9.028;2023-06-24T22:01:00;20.40;99.90
24103;DHT22;12278;53.058;9.028;2023-06-24T22:05:01;20.30;99.90
24103;DHT22;12278;53.058;9.028;2023-06-24T22:09:01;20.30;99.90
24103;DHT22;12278;53.058;9.028;2023-06-24T22:13:02;20.20;99.90
24103;DHT22;12278;53.058;9.028;2023-06-24T22:17:03;20.10;99.90
24103;DHT22;12278;53.058;9.028;2023-06-24T22:21:03;20.10;99.90
24103;DHT22;12278;53.058;9.028;2023-06-24T22:25:04;20.00;99.90
24103;DHT22;12278;53.058;9.028;2023-06-24T22:29:05;19.90;99.90
24103;DHT22;12278;53.058;9.028;2023-06-24T22:33:06;19.80;99.90
24103;DHT22;12278;53.058;9.028;2023-06-24T22:37:06;19.80;99.90
24103;DHT22;12278;53.058;9.028;2023-06-24T22:41:07;19.70;99.90
24103;DHT22;12278;53.058;9.028;2023-06-24T22:45:08;19.60;99.90
24103;DHT22;12278;53.058;9.028;2023-06-24T22:49:09;19.60;99.90
24103;DHT22;12278;53.058;9.028;2023-06-24T22:53:09;19.60;99.90
24103;DHT22;12278;53.058;9.028;2023-06-24T22:57:10;19.50;99.90
24103;DHT22;12278;53.058;9.028;2023-06-24T23:01:11;19.40;99.90
24103;DHT22;12278;53.058;9.028;2023-06-24T23:05:13;19.40;99.90
24103;DHT22;12278;53.058;9.028;2023-06-24T23:09:14;19.40;99.90
24103;DHT22;12278;53.058;9.028;2023-06-24T23:13:16;19.40;99.90
24103;DHT22;12278;53.058;9.028;2023-06-24T23:17:17;19.30;99.90
24103;DHT22;12278;53.058;9.028;2023-06-24T23:21:19;19.30;99.90
24103;DHT22;12278;53.058;9.028;2023-06-24T23:25:21;19.20;99.90
24103;DHT22;12278;53.058;9.028;2023-06-24T23:29:26;19.10;99.90
24103;DHT22;12278;53.058;9.028;2023-06-24T23:33:27;19.00;99.90
24103;DHT22;12278;53.058;9.028;2023-06-24T23:37:28;19.00;99.90
24103;DHT22;12278;53.058;9.028;2023-06-24T23:41:29;19.10;99.90
24103;DHT22;12278;53.058;9.028;2023-06-24T23:45:30;19.00;99.90
24103;DHT22;12278;53.058;9.028;2023-06-24T23:49:31;19.00;99.90
24103;DHT22;12278;53.058;9.028;2023-06-24T23:53:31;19.00;99.90
24103;DHT22;12278;53.058;9.028;2023-06-24T23:57:32;18.90;99.90
